sensor_id;sensor_type;location;lat;lon;timestamp;P1;durP1;ratioP1;P2;durP2;ratioP2
15104;SDS011;7653;48.994;9.212;2023-03-12T00:01:23;15.27;;;5.87;;
15104;SDS011;7653;48.994;9.212;2023-03-12T00:03:51;7.40;;;3.13;;
15104;SDS011;7653;48.994;9.212;2023-03-12T00:06:19;4.60;;;2.87;;
15104;SDS011;7653;48.994;9.212;2023-03-12T00:08:45;4.47;;;2.80;;
15104;SDS011;7653;48.994;9.212;2023-03-12T00:11:13;4.40;;;2.77;;
15104;SDS011;7653;48.994;9.212;2023-03-12T00:13:41;5.37;;;2.67;;
15104;SDS011;7653;48.994;9.212;2023-03-12T00:16:08;4.13;;;2.97;;
15104;SDS011;7653;48.994;9.212;2023-03-12T00:18:38;4.20;;;3.10;;
15104;SDS011;7653;48.994;9.212;2023-03-12T00:21:05;8.53;;;3.77;;
15104;SDS011;7653;48.994;9.212;2023-03-12T00:23:31;5.60;;;2.90;;
15104;SDS011;7653;48.994;9.212;2023-03-12T00:26:03;9.03;;;3.57;;
15104;SDS011;7653;48.994;9.212;2023-03-12T00:28:30;6.50;;;3.10;;
15104;SDS011;7653;48.994;9.212;2023-03-12T00:30:56;5.63;;;3.50;;
15104;SDS011;7653;48.994;9.212;2023-03-12T00:33:25;6.23;;;3.33;;
15104;SDS011;7653;48.994;9.212;2023-03-12T00:35:53;4.70;;;2.77;;
15104;SDS011;7653;48.994;9.212;2023-03-12T00:38:19;3.60;;;2.73;;
15104;SDS011;7653;48.994;9.212;2023-03-12T00:40:45;5.77;;;3.27;;
15104;SDS011;7653;48.994;9.212;2023-03-12T00:43:11;12.77;;;5.47;;
15104;SDS011;7653;48.994;9.212;2023-03-12T00:45:36;14.43;;;5.43;;
15104;SDS011;7653;48.994;9.212;2023-03-12T00:48:02;12.97;;;6.13;;
15104;SDS011;7653;48.994;9.212;2023-03-12T00:50:28;18.13;;;7.07;;
15104;SDS011;7653;48.994;9.212;2023-03-12T00:52:53;16.23;;;6.83;;
15104;SDS011;7653;48.994;9.212;2023-03-12T00:55:19;13.03;;;6.77;;
15104;SDS011;7653;48.994;9.212;2023-03-12T00:57:45;8.40;;;4.90;;
15104;SDS011;7653;48.994;9.212;2023-03-12T01:00:11;13.27;;;5.57;;
15104;SDS011;7653;48.994;9.212;2023-03-12T01:02:37;13.63;;;5.80;;
15104;SDS011;7653;48.994;9.212;2023-03-12T01:05:04;8.50;;;3.93;;
15104;SDS011;7653;48.994;9.212;2023-03-12T01:07:32;11.57;;;5.83;;
15104;SDS011;7653;48.994;9.212;2023-03-12T01:09:57;6.90;;;3.93;;
15104;SDS011;7653;48.994;9.212;2023-03-12T01:12:23;8.77;;;4.00;;
15104;SDS011;7653;48.994;9.212;2023-03-12T01:14:49;7.93;;;4.47;;
15104;SDS011;7653;48.994;9.212;2023-03-12T01:17:15;11.03;;;4.43;;
15104;SDS011;7653;48.994;9.212;2023-03-12T01:19:40;8.50;;;4.90;;
15104;SDS011;7653;48.994;9.212;2023-03-12T01:22:06;9.20;;;4.73;;
15104;SDS011;7653;48.994;9.212;2023-03-12T01:24:31;8.00;;;5.00;;
15104;SDS011;7653;48.994;9.212;2023-03-12T01:26:57;9.17;;;4.83;;
15104;SDS011;7653;48.994;9.212;2023-03-12T01:29:23;5.63;;;3.53;;
15104;SDS011;7653;48.994;9.212;2023-03-12T01:31:48;5.70;;;3.50;;
15104;SDS011;7653;48.994;9.212;2023-03-12T01:34:16;5.67;;;3.43;;
15104;SDS011;7653;48.994;9.212;2023-03-12T01:36:41;4.70;;;3.67;;
15104;SDS011;7653;48.994;9.212;2023-03-12T01:39:09;6.20;;;4.03;;
15104;SDS011;7653;48.994;9.212;2023-03-12T01:41:34;7.40;;;4.20;;
15104;SDS011;7653;48.994;9.212;2023-03-12T01:44:01;6.30;;;3.93;;
15104;SDS011;7653;48.994;9.212;2023-03-12T01:56:55;7.93;;;3.87;;
15104;SDS011;7653;48.994;9.212;2023-03-12T01:59:23;7.03;;;3.90;;
15104;SDS011;7653;48.994;9.212;2023-03-12T02:02:09;7.07;;;3.60;;
15104;SDS011;7653;48.994;9.212;2023-03-12T02:04:36;9.63;;;3.87;;
15104;SDS011;7653;48.994;9.212;2023-03-12T02:07:05;6.00;;;3.47;;
15104;SDS011;7653;48.994;9.212;2023-03-12T02:09:34;4.93;;;3.10;;
15104;SDS011;7653;48.994;9.212;2023-03-12T02:12:04;5.83;;;3.60;;
15104;SDS011;7653;48.994;9.212;2023-03-12T02:14:30;6.93;;;3.50;;
15104;SDS011;7653;48.994;9.212;2023-03-12T02:16:56;5.80;;;3.33;;
15104;SDS011;7653;48.994;9.212;2023-03-12T02:22:24;5.47;;;3.10;;
15104;SDS011;7653;48.994;9.212;2023-03-12T02:27:27;4.27;;;3.20;;
15104;SDS011;7653;48.994;9.212;2023-03-12T02:29:57;4.77;;;3.33;;
15104;SDS011;7653;48.994;9.212;2023-03-12T02:32:25;6.43;;;3.07;;
15104;SDS011;7653;48.994;9.212;2023-03-12T02:34:54;8.00;;;3.83;;
15104;SDS011;7653;48.994;9.212;2023-03-12T02:37:21;5.37;;;3.40;;
15104;SDS011;7653;48.994;9.212;2023-03-12T02:39:49;6.07;;;3.47;;
15104;SDS011;7653;48.994;9.212;2023-03-12T02:42:19;7.20;;;4.00;;
15104;SDS011;7653;48.994;9.212;2023-03-12T02:44:45;4.43;;;3.17;;
15104;SDS011;7653;48.994;9.212;2023-03-12T02:47:11;4.80;;;3.13;;
15104;SDS011;7653;48.994;9.212;2023-03-12T02:49:37;4.80;;;2.93;;
15104;SDS011;7653;48.994;9.212;2023-03-12T02:52:02;6.30;;;3.17;;
15104;SDS011;7653;48.994;9.212;2023-03-12T02:54:28;4.23;;;3.07;;
15104;SDS011;7653;48.994;9.212;2023-03-12T02:56:54;4.40;;;3.13;;
15104;SDS011;7653;48.994;9.212;2023-03-12T02:59:20;5.53;;;3.50;;
15104;SDS011;7653;48.994;9.212;2023-03-12T03:01:54;7.00;;;3.67;;
15104;SDS011;7653;48.994;9.212;2023-03-12T03:04:21;6.13;;;3.27;;
15104;SDS011;7653;48.994;9.212;2023-03-12T03:06:47;6.63;;;3.37;;
15104;SDS011;7653;48.994;9.212;2023-03-12T03:09:13;5.77;;;3.37;;
15104;SDS011;7653;48.994;9.212;2023-03-12T03:11:39;4.37;;;3.50;;
15104;SDS011;7653;48.994;9.212;2023-03-12T03:14:05;4.13;;;2.90;;
15104;SDS011;7653;48.994;9.212;2023-03-12T03:16:31;6.57;;;3.10;;
15104;SDS011;7653;48.994;9.212;2023-03-12T03:18:57;6.60;;;3.30;;
15104;SDS011;7653;48.994;9.212;2023-03-12T03:21:23;7.70;;;3.40;;
15104;SDS011;7653;48.994;9.212;2023-03-12T03:23:49;6.53;;;3.43;;
15104;SDS011;7653;48.994;9.212;2023-03-12T03:26:17;4.90;;;2.97;;
15104;SDS011;7653;48.994;9.212;2023-03-12T03:28:44;6.27;;;4.10;;
15104;SDS011;7653;48.994;9.212;2023-03-12T03:31:10;7.07;;;3.40;;
15104;SDS011;7653;48.994;9.212;2023-03-12T03:33:37;5.60;;;3.50;;
15104;SDS011;7653;48.994;9.212;2023-03-12T03:36:04;4.90;;;3.67;;
15104;SDS011;7653;48.994;9.212;2023-03-12T03:38:32;4.50;;;3.07;;
15104;SDS011;7653;48.994;9.212;2023-03-12T03:40:58;4.20;;;3.10;;
15104;SDS011;7653;48.994;9.212;2023-03-12T03:43:24;8.73;;;3.67;;
15104;SDS011;7653;48.994;9.212;2023-03-12T03:45:57;6.27;;;3.60;;
15104;SDS011;7653;48.994;9.212;2023-03-12T03:48:23;7.83;;;3.80;;
15104;SDS011;7653;48.994;9.212;2023-03-12T03:50:48;7.40;;;3.67;;
15104;SDS011;7653;48.994;9.212;2023-03-12T03:53:14;6.70;;;3.43;;
15104;SDS011;7653;48.994;9.212;2023-03-12T03:55:40;4.87;;;3.07;;
15104;SDS011;7653;48.994;9.212;2023-03-12T03:58:06;5.33;;;3.67;;
15104;SDS011;7653;48.994;9.212;2023-03-12T04:00:32;5.93;;;3.83;;
15104;SDS011;7653;48.994;9.212;2023-03-12T04:02:58;6.13;;;3.60;;
15104;SDS011;7653;48.994;9.212;2023-03-12T04:05:23;5.87;;;3.77;;
15104;SDS011;7653;48.994;9.212;2023-03-12T04:07:53;5.67;;;3.10;;
15104;SDS011;7653;48.994;9.212;2023-03-12T04:10:19;5.17;;;3.50;;
15104;SDS011;7653;48.994;9.212;2023-03-12T04:12:46;6.00;;;3.83;;
15104;SDS011;7653;48.994;9.212;2023-03-12T04:15:12;9.20;;;3.80;;
15104;SDS011;7653;48.994;9.212;2023-03-12T04:17:37;7.07;;;3.43;;
15104;SDS011;7653;48.994;9.212;2023-03-12T04:20:03;8.47;;;3.40;;
15104;SDS011;7653;48.994;9.212;2023-03-12T04:22:32;4.40;;;3.13;;
15104;SDS011;7653;48.994;9.212;2023-03-12T04:24:57;4.83;;;3.43;;
15104;SDS011;7653;48.994;9.212;2023-03-12T04:27:23;4.87;;;3.00;;
15104;SDS011;7653;48.994;9.212;2023-03-12T04:29:49;7.13;;;3.33;;
15104;SDS011;7653;48.994;9.212;2023-03-12T04:32:14;6.87;;;3.57;;
15104;SDS011;7653;48.994;9.212;2023-03-12T04:34:40;4.70;;;3.40;;
15104;SDS011;7653;48.994;9.212;2023-03-12T04:37:06;5.63;;;3.20;;
15104;SDS011;7653;48.994;9.212;2023-03-12T04:39:35;6.10;;;3.30;;
15104;SDS011;7653;48.994;9.212;2023-03-12T04:42:00;6.17;;;3.40;;
15104;SDS011;7653;48.994;9.212;2023-03-12T04:44:26;8.07;;;4.33;;
15104;SDS011;7653;48.994;9.212;2023-03-12T04:46:52;6.40;;;3.60;;
15104;SDS011;7653;48.994;9.212;2023-03-12T04:49:17;5.87;;;3.33;;
15104;SDS011;7653;48.994;9.212;2023-03-12T04:51:43;8.33;;;3.73;;
15104;SDS011;7653;48.994;9.212;2023-03-12T04:54:09;4.00;;;2.90;;
15104;SDS011;7653;48.994;9.212;2023-03-12T04:56:34;5.23;;;3.03;;
15104;SDS011;7653;48.994;9.212;2023-03-12T04:59:00;8.57;;;3.43;;
15104;SDS011;7653;48.994;9.212;2023-03-12T05:01:29;7.03;;;3.10;;
15104;SDS011;7653;48.994;9.212;2023-03-12T05:03:57;7.03;;;3.17;;
15104;SDS011;7653;48.994;9.212;2023-03-12T05:06:23;5.53;;;3.23;;
15104;SDS011;7653;48.994;9.212;2023-03-12T05:08:49;5.20;;;3.40;;
15104;SDS011;7653;48.994;9.212;2023-03-12T05:11:16;3.20;;;2.80;;
15104;SDS011;7653;48.994;9.212;2023-03-12T05:13:43;6.77;;;3.70;;
15104;SDS011;7653;48.994;9.212;2023-03-12T05:16:09;4.17;;;2.90;;
15104;SDS011;7653;48.994;9.212;2023-03-12T05:18:35;6.00;;;3.10;;
15104;SDS011;7653;48.994;9.212;2023-03-12T05:21:02;5.97;;;3.20;;
15104;SDS011;7653;48.994;9.212;2023-03-12T05:23:33;5.13;;;2.83;;
15104;SDS011;7653;48.994;9.212;2023-03-12T05:25:59;7.60;;;3.37;;
15104;SDS011;7653;48.994;9.212;2023-03-12T05:28:25;6.00;;;3.70;;
15104;SDS011;7653;48.994;9.212;2023-03-12T05:30:59;5.17;;;3.53;;
15104;SDS011;7653;48.994;9.212;2023-03-12T05:33:26;6.60;;;3.50;;
15104;SDS011;7653;48.994;9.212;2023-03-12T05:35:53;4.87;;;2.97;;
15104;SDS011;7653;48.994;9.212;2023-03-12T05:38:18;4.83;;;3.23;;
15104;SDS011;7653;48.994;9.212;2023-03-12T05:40:54;5.10;;;3.17;;
15104;SDS011;7653;48.994;9.212;2023-03-12T05:43:21;5.50;;;3.63;;
15104;SDS011;7653;48.994;9.212;2023-03-12T05:45:47;5.97;;;3.30;;
15104;SDS011;7653;48.994;9.212;2023-03-12T05:48:13;3.87;;;3.20;;
15104;SDS011;7653;48.994;9.212;2023-03-12T05:50:39;4.43;;;2.90;;
15104;SDS011;7653;48.994;9.212;2023-03-12T05:53:04;5.10;;;3.70;;
15104;SDS011;7653;48.994;9.212;2023-03-12T05:55:33;5.00;;;3.30;;
15104;SDS011;7653;48.994;9.212;2023-03-12T05:58:03;6.43;;;4.00;;
15104;SDS011;7653;48.994;9.212;2023-03-12T06:00:30;7.20;;;3.33;;
15104;SDS011;7653;48.994;9.212;2023-03-12T06:02:56;6.33;;;3.03;;
15104;SDS011;7653;48.994;9.212;2023-03-12T06:05:21;5.87;;;4.27;;
15104;SDS011;7653;48.994;9.212;2023-03-12T06:07:47;4.23;;;3.00;;
15104;SDS011;7653;48.994;9.212;2023-03-12T06:10:13;5.80;;;3.17;;
15104;SDS011;7653;48.994;9.212;2023-03-12T06:12:38;4.53;;;2.93;;
15104;SDS011;7653;48.994;9.212;2023-03-12T06:15:04;6.30;;;3.47;;
15104;SDS011;7653;48.994;9.212;2023-03-12T06:17:30;4.20;;;3.10;;
15104;SDS011;7653;48.994;9.212;2023-03-12T06:19:56;5.50;;;3.27;;
15104;SDS011;7653;48.994;9.212;2023-03-12T06:22:22;5.30;;;3.27;;
15104;SDS011;7653;48.994;9.212;2023-03-12T06:24:48;5.33;;;3.40;;
15104;SDS011;7653;48.994;9.212;2023-03-12T06:27:13;6.37;;;3.20;;
15104;SDS011;7653;48.994;9.212;2023-03-12T06:29:40;4.00;;;3.17;;
15104;SDS011;7653;48.994;9.212;2023-03-12T06:32:06;7.33;;;3.23;;
15104;SDS011;7653;48.994;9.212;2023-03-12T06:34:32;8.17;;;2.93;;
15104;SDS011;7653;48.994;9.212;2023-03-12T06:36:57;5.93;;;3.80;;
15104;SDS011;7653;48.994;9.212;2023-03-12T06:39:23;9.03;;;3.87;;
15104;SDS011;7653;48.994;9.212;2023-03-12T06:41:49;8.70;;;3.90;;
15104;SDS011;7653;48.994;9.212;2023-03-12T06:44:14;4.77;;;3.47;;
15104;SDS011;7653;48.994;9.212;2023-03-12T06:46:41;4.13;;;2.97;;
15104;SDS011;7653;48.994;9.212;2023-03-12T06:49:08;9.37;;;3.93;;
15104;SDS011;7653;48.994;9.212;2023-03-12T06:51:34;5.27;;;3.50;;
15104;SDS011;7653;48.994;9.212;2023-03-12T06:54:00;6.57;;;3.40;;
15104;SDS011;7653;48.994;9.212;2023-03-12T06:56:26;5.93;;;3.10;;
15104;SDS011;7653;48.994;9.212;2023-03-12T06:58:53;4.93;;;3.03;;
15104;SDS011;7653;48.994;9.212;2023-03-12T07:01:18;4.30;;;3.60;;
15104;SDS011;7653;48.994;9.212;2023-03-12T07:03:44;8.73;;;4.07;;
15104;SDS011;7653;48.994;9.212;2023-03-12T07:06:28;6.00;;;3.23;;
15104;SDS011;7653;48.994;9.212;2023-03-12T07:08:54;4.63;;;3.13;;
15104;SDS011;7653;48.994;9.212;2023-03-12T07:11:19;6.87;;;4.30;;
15104;SDS011;7653;48.994;9.212;2023-03-12T07:13:45;6.17;;;3.93;;
15104;SDS011;7653;48.994;9.212;2023-03-12T07:16:11;7.80;;;4.10;;
15104;SDS011;7653;48.994;9.212;2023-03-12T07:18:37;8.50;;;4.20;;
15104;SDS011;7653;48.994;9.212;2023-03-12T07:21:02;5.70;;;3.80;;
15104;SDS011;7653;48.994;9.212;2023-03-12T07:23:28;6.60;;;3.80;;
15104;SDS011;7653;48.994;9.212;2023-03-12T07:25:54;5.23;;;3.73;;
15104;SDS011;7653;48.994;9.212;2023-03-12T07:28:20;6.97;;;3.80;;
15104;SDS011;7653;48.994;9.212;2023-03-12T07:30:46;5.57;;;3.90;;
15104;SDS011;7653;48.994;9.212;2023-03-12T07:33:16;5.70;;;3.60;;
15104;SDS011;7653;48.994;9.212;2023-03-12T07:35:44;5.00;;;3.47;;
15104;SDS011;7653;48.994;9.212;2023-03-12T07:38:11;6.07;;;3.60;;
15104;SDS011;7653;48.994;9.212;2023-03-12T07:40:37;5.03;;;3.30;;
15104;SDS011;7653;48.994;9.212;2023-03-12T07:43:03;7.33;;;3.37;;
15104;SDS011;7653;48.994;9.212;2023-03-12T07:45:35;4.87;;;3.50;;
15104;SDS011;7653;48.994;9.212;2023-03-12T07:48:02;5.63;;;3.57;;
15104;SDS011;7653;48.994;9.212;2023-03-12T07:50:27;6.13;;;3.60;;
15104;SDS011;7653;48.994;9.212;2023-03-12T07:52:53;7.57;;;3.67;;
15104;SDS011;7653;48.994;9.212;2023-03-12T07:55:19;5.67;;;3.73;;
15104;SDS011;7653;48.994;9.212;2023-03-12T07:57:44;6.10;;;4.03;;
15104;SDS011;7653;48.994;9.212;2023-03-12T08:00:10;6.73;;;3.90;;
15104;SDS011;7653;48.994;9.212;2023-03-12T08:02:36;6.57;;;4.23;;
15104;SDS011;7653;48.994;9.212;2023-03-12T08:05:02;9.03;;;4.60;;
15104;SDS011;7653;48.994;9.212;2023-03-12T08:07:29;6.50;;;4.67;;
15104;SDS011;7653;48.994;9.212;2023-03-12T08:09:57;7.73;;;4.90;;
15104;SDS011;7653;48.994;9.212;2023-03-12T08:12:23;5.93;;;3.90;;
15104;SDS011;7653;48.994;9.212;2023-03-12T08:14:48;7.30;;;4.03;;
15104;SDS011;7653;48.994;9.212;2023-03-12T08:17:14;5.77;;;4.23;;
15104;SDS011;7653;48.994;9.212;2023-03-12T08:19:39;10.03;;;5.00;;
15104;SDS011;7653;48.994;9.212;2023-03-12T08:22:06;6.13;;;4.60;;
15104;SDS011;7653;48.994;9.212;2023-03-12T08:24:32;5.53;;;4.67;;
15104;SDS011;7653;48.994;9.212;2023-03-12T08:26:58;7.07;;;4.43;;
15104;SDS011;7653;48.994;9.212;2023-03-12T08:29:24;8.70;;;5.00;;
15104;SDS011;7653;48.994;9.212;2023-03-12T08:31:50;6.10;;;4.50;;
15104;SDS011;7653;48.994;9.212;2023-03-12T08:34:16;7.47;;;4.37;;
15104;SDS011;7653;48.994;9.212;2023-03-12T08:36:41;5.80;;;4.07;;
15104;SDS011;7653;48.994;9.212;2023-03-12T08:39:07;7.97;;;4.60;;
15104;SDS011;7653;48.994;9.212;2023-03-12T08:41:33;6.33;;;3.87;;
15104;SDS011;7653;48.994;9.212;2023-03-12T08:43:58;7.70;;;4.50;;
15104;SDS011;7653;48.994;9.212;2023-03-12T08:46:24;7.80;;;4.27;;
15104;SDS011;7653;48.994;9.212;2023-03-12T08:48:49;6.53;;;4.33;;
15104;SDS011;7653;48.994;9.212;2023-03-12T08:51:16;7.93;;;4.93;;
15104;SDS011;7653;48.994;9.212;2023-03-12T08:53:42;8.47;;;4.37;;
15104;SDS011;7653;48.994;9.212;2023-03-12T08:56:09;9.37;;;4.70;;
15104;SDS011;7653;48.994;9.212;2023-03-12T08:58:34;11.03;;;4.40;;
15104;SDS011;7653;48.994;9.212;2023-03-12T09:01:00;8.33;;;5.10;;
15104;SDS011;7653;48.994;9.212;2023-03-12T09:03:26;7.50;;;4.97;;
15104;SDS011;7653;48.994;9.212;2023-03-12T09:06:01;11.23;;;5.23;;
15104;SDS011;7653;48.994;9.212;2023-03-12T09:08:28;7.37;;;4.77;;
15104;SDS011;7653;48.994;9.212;2023-03-12T09:10:54;9.20;;;4.77;;
15104;SDS011;7653;48.994;9.212;2023-03-12T09:13:20;7.03;;;4.60;;
15104;SDS011;7653;48.994;9.212;2023-03-12T09:15:45;10.63;;;5.27;;
15104;SDS011;7653;48.994;9.212;2023-03-12T09:18:11;6.37;;;5.20;;
15104;SDS011;7653;48.994;9.212;2023-03-12T09:20:36;7.03;;;5.07;;
15104;SDS011;7653;48.994;9.212;2023-03-12T09:23:02;8.10;;;5.53;;
15104;SDS011;7653;48.994;9.212;2023-03-12T09:25:28;6.93;;;5.23;;
15104;SDS011;7653;48.994;9.212;2023-03-12T09:27:53;9.83;;;5.80;;
15104;SDS011;7653;48.994;9.212;2023-03-12T09:30:19;9.10;;;6.07;;
15104;SDS011;7653;48.994;9.212;2023-03-12T09:32:46;7.13;;;6.00;;
15104;SDS011;7653;48.994;9.212;2023-03-12T09:35:13;8.17;;;5.70;;
15104;SDS011;7653;48.994;9.212;2023-03-12T09:37:39;8.70;;;6.07;;
15104;SDS011;7653;48.994;9.212;2023-03-12T09:40:05;9.27;;;5.70;;
15104;SDS011;7653;48.994;9.212;2023-03-12T09:42:36;8.03;;;6.20;;
15104;SDS011;7653;48.994;9.212;2023-03-12T09:45:03;8.80;;;6.07;;
15104;SDS011;7653;48.994;9.212;2023-03-12T09:47:35;8.80;;;6.07;;
15104;SDS011;7653;48.994;9.212;2023-03-12T09:52:49;10.20;;;6.40;;
15104;SDS011;7653;48.994;9.212;2023-03-12T09:55:23;8.70;;;6.00;;
15104;SDS011;7653;48.994;9.212;2023-03-12T09:57:50;8.70;;;6.60;;
15104;SDS011;7653;48.994;9.212;2023-03-12T10:00:19;8.27;;;6.50;;
15104;SDS011;7653;48.994;9.212;2023-03-12T10:56:22;9.33;;;6.90;;
15104;SDS011;7653;48.994;9.212;2023-03-12T10:58:49;9.77;;;7.17;;
15104;SDS011;7653;48.994;9.212;2023-03-12T11:03:45;10.20;;;7.03;;
15104;SDS011;7653;48.994;9.212;2023-03-12T11:06:19;11.37;;;6.47;;
15104;SDS011;7653;48.994;9.212;2023-03-12T11:11:46;10.50;;;8.33;;
15104;SDS011;7653;48.994;9.212;2023-03-12T11:16:42;10.77;;;6.87;;
15104;SDS011;7653;48.994;9.212;2023-03-12T11:19:09;10.73;;;8.37;;
15104;SDS011;7653;48.994;9.212;2023-03-12T11:21:37;9.50;;;8.27;;
15104;SDS011;7653;48.994;9.212;2023-03-12T11:26:43;13.10;;;7.43;;
15104;SDS011;7653;48.994;9.212;2023-03-12T11:29:35;8.27;;;6.27;;
15104;SDS011;7653;48.994;9.212;2023-03-12T11:34:47;7.67;;;5.83;;
15104;SDS011;7653;48.994;9.212;2023-03-12T11:37:16;8.33;;;5.70;;
15104;SDS011;7653;48.994;9.212;2023-03-12T11:45:28;6.97;;;5.93;;
15104;SDS011;7653;48.994;9.212;2023-03-12T12:19:15;8.00;;;3.77;;
15104;SDS011;7653;48.994;9.212;2023-03-12T12:27:28;6.37;;;3.30;;
15104;SDS011;7653;48.994;9.212;2023-03-12T12:30:08;3.27;;;1.53;;
15104;SDS011;7653;48.994;9.212;2023-03-12T12:40:41;7.73;;;3.30;;
15104;SDS011;7653;48.994;9.212;2023-03-12T12:43:22;5.43;;;3.47;;
15104;SDS011;7653;48.994;9.212;2023-03-12T12:45:55;7.00;;;3.20;;
15104;SDS011;7653;48.994;9.212;2023-03-12T12:48:32;6.10;;;2.90;;
15104;SDS011;7653;48.994;9.212;2023-03-12T12:51:02;5.47;;;2.90;;
15104;SDS011;7653;48.994;9.212;2023-03-12T12:53:31;6.47;;;3.00;;
15104;SDS011;7653;48.994;9.212;2023-03-12T12:56:22;7.85;;;4.00;;
15104;SDS011;7653;48.994;9.212;2023-03-12T13:01:30;5.30;;;2.70;;
15104;SDS011;7653;48.994;9.212;2023-03-12T13:04:04;5.90;;;3.33;;
15104;SDS011;7653;48.994;9.212;2023-03-12T13:14:39;4.50;;;2.63;;
15104;SDS011;7653;48.994;9.212;2023-03-12T13:17:08;8.03;;;3.60;;
15104;SDS011;7653;48.994;9.212;2023-03-12T13:19:43;8.10;;;5.27;;
15104;SDS011;7653;48.994;9.212;2023-03-12T13:24:49;6.83;;;3.63;;
15104;SDS011;7653;48.994;9.212;2023-03-12T13:27:35;5.10;;;2.80;;
15104;SDS011;7653;48.994;9.212;2023-03-12T13:37:58;5.77;;;2.40;;
15104;SDS011;7653;48.994;9.212;2023-03-12T13:45:32;4.63;;;1.57;;
15104;SDS011;7653;48.994;9.212;2023-03-12T13:48:04;3.60;;;1.37;;
15104;SDS011;7653;48.994;9.212;2023-03-12T13:50:40;1.87;;;1.33;;
15104;SDS011;7653;48.994;9.212;2023-03-12T13:53:18;4.07;;;1.80;;
15104;SDS011;7653;48.994;9.212;2023-03-12T13:55:49;4.20;;;1.57;;
15104;SDS011;7653;48.994;9.212;2023-03-12T13:58:25;4.13;;;1.00;;
15104;SDS011;7653;48.994;9.212;2023-03-12T14:01:03;1.03;;;0.77;;
15104;SDS011;7653;48.994;9.212;2023-03-12T14:03:34;4.60;;;1.10;;
15104;SDS011;7653;48.994;9.212;2023-03-12T14:11:33;3.80;;;1.13;;
15104;SDS011;7653;48.994;9.212;2023-03-12T14:16:56;5.40;;;1.67;;
15104;SDS011;7653;48.994;9.212;2023-03-12T14:19:26;5.17;;;1.60;;
15104;SDS011;7653;48.994;9.212;2023-03-12T14:21:54;5.80;;;1.80;;
15104;SDS011;7653;48.994;9.212;2023-03-12T14:27:03;3.20;;;1.17;;
15104;SDS011;7653;48.994;9.212;2023-03-12T14:29:38;4.80;;;1.80;;
15104;SDS011;7653;48.994;9.212;2023-03-12T14:32:14;4.77;;;1.67;;
15104;SDS011;7653;48.994;9.212;2023-03-12T14:34:45;6.23;;;2.33;;
15104;SDS011;7653;48.994;9.212;2023-03-12T14:42:07;5.50;;;1.90;;
15104;SDS011;7653;48.994;9.212;2023-03-12T14:44:35;3.93;;;2.20;;
15104;SDS011;7653;48.994;9.212;2023-03-12T14:47:04;9.07;;;2.43;;
15104;SDS011;7653;48.994;9.212;2023-03-12T14:49:38;5.13;;;1.80;;
15104;SDS011;7653;48.994;9.212;2023-03-12T14:52:09;4.37;;;2.00;;
15104;SDS011;7653;48.994;9.212;2023-03-12T14:54:36;6.80;;;2.00;;
15104;SDS011;7653;48.994;9.212;2023-03-12T14:57:03;7.07;;;2.03;;
15104;SDS011;7653;48.994;9.212;2023-03-12T14:59:31;3.97;;;2.00;;
15104;SDS011;7653;48.994;9.212;2023-03-12T15:02:11;8.37;;;2.50;;
15104;SDS011;7653;48.994;9.212;2023-03-12T15:04:38;10.17;;;1.47;;
15104;SDS011;7653;48.994;9.212;2023-03-12T15:07:05;3.47;;;1.37;;
15104;SDS011;7653;48.994;9.212;2023-03-12T15:09:36;5.80;;;2.00;;
15104;SDS011;7653;48.994;9.212;2023-03-12T15:12:14;4.87;;;2.00;;
15104;SDS011;7653;48.994;9.212;2023-03-12T15:14:43;7.07;;;2.20;;
15104;SDS011;7653;48.994;9.212;2023-03-12T15:17:19;7.07;;;2.53;;
15104;SDS011;7653;48.994;9.212;2023-03-12T15:19:48;5.43;;;1.87;;
15104;SDS011;7653;48.994;9.212;2023-03-12T15:22:18;5.47;;;2.40;;
15104;SDS011;7653;48.994;9.212;2023-03-12T15:24:48;8.13;;;2.27;;
15104;SDS011;7653;48.994;9.212;2023-03-12T15:29:52;9.20;;;2.00;;
15104;SDS011;7653;48.994;9.212;2023-03-12T15:32:20;7.03;;;2.23;;
15104;SDS011;7653;48.994;9.212;2023-03-12T15:34:49;4.40;;;1.40;;
15104;SDS011;7653;48.994;9.212;2023-03-12T15:40:23;3.93;;;1.10;;
15104;SDS011;7653;48.994;9.212;2023-03-12T15:42:51;3.87;;;1.20;;
15104;SDS011;7653;48.994;9.212;2023-03-12T15:48:10;2.43;;;1.00;;
15104;SDS011;7653;48.994;9.212;2023-03-12T15:50:47;5.17;;;1.77;;
15104;SDS011;7653;48.994;9.212;2023-03-12T15:55:39;8.20;;;3.00;;
15104;SDS011;7653;48.994;9.212;2023-03-12T15:58:24;6.00;;;1.87;;
15104;SDS011;7653;48.994;9.212;2023-03-12T16:00:52;6.20;;;2.27;;
15104;SDS011;7653;48.994;9.212;2023-03-12T16:03:19;6.37;;;1.77;;
15104;SDS011;7653;48.994;9.212;2023-03-12T16:05:46;6.00;;;1.80;;
15104;SDS011;7653;48.994;9.212;2023-03-12T16:10:42;5.70;;;1.83;;
15104;SDS011;7653;48.994;9.212;2023-03-12T16:13:09;8.47;;;2.37;;
15104;SDS011;7653;48.994;9.212;2023-03-12T16:15:38;4.03;;;1.70;;
15104;SDS011;7653;48.994;9.212;2023-03-12T16:18:04;6.93;;;2.27;;
15104;SDS011;7653;48.994;9.212;2023-03-12T16:20:35;5.50;;;1.83;;
15104;SDS011;7653;48.994;9.212;2023-03-12T16:23:00;7.37;;;2.00;;
15104;SDS011;7653;48.994;9.212;2023-03-12T16:25:26;5.87;;;1.87;;
15104;SDS011;7653;48.994;9.212;2023-03-12T16:27:53;6.93;;;1.97;;
15104;SDS011;7653;48.994;9.212;2023-03-12T16:32:51;6.67;;;2.10;;
15104;SDS011;7653;48.994;9.212;2023-03-12T16:35:17;4.63;;;1.90;;
15104;SDS011;7653;48.994;9.212;2023-03-12T16:37:44;5.43;;;1.80;;
15104;SDS011;7653;48.994;9.212;2023-03-12T16:40:11;6.70;;;1.80;;
15104;SDS011;7653;48.994;9.212;2023-03-12T16:42:38;3.43;;;1.50;;
15104;SDS011;7653;48.994;9.212;2023-03-12T16:45:10;6.97;;;1.90;;
15104;SDS011;7653;48.994;9.212;2023-03-12T16:47:38;4.60;;;1.87;;
15104;SDS011;7653;48.994;9.212;2023-03-12T16:50:23;6.27;;;1.67;;
15104;SDS011;7653;48.994;9.212;2023-03-12T16:52:49;6.60;;;2.17;;
15104;SDS011;7653;48.994;9.212;2023-03-12T16:55:19;6.57;;;1.80;;
15104;SDS011;7653;48.994;9.212;2023-03-12T16:57:48;6.50;;;2.37;;
15104;SDS011;7653;48.994;9.212;2023-03-12T17:00:20;4.53;;;1.57;;
15104;SDS011;7653;48.994;9.212;2023-03-12T17:02:47;5.10;;;1.70;;
15104;SDS011;7653;48.994;9.212;2023-03-12T17:05:14;10.67;;;4.17;;
15104;SDS011;7653;48.994;9.212;2023-03-12T17:07:40;12.73;;;6.63;;
15104;SDS011;7653;48.994;9.212;2023-03-12T17:10:06;9.93;;;5.30;;
15104;SDS011;7653;48.994;9.212;2023-03-12T17:12:33;6.10;;;2.77;;
15104;SDS011;7653;48.994;9.212;2023-03-12T17:15:04;6.80;;;2.57;;
15104;SDS011;7653;48.994;9.212;2023-03-12T17:17:35;8.03;;;2.30;;
15104;SDS011;7653;48.994;9.212;2023-03-12T17:20:01;4.97;;;2.00;;
15104;SDS011;7653;48.994;9.212;2023-03-12T17:22:31;7.43;;;2.57;;
15104;SDS011;7653;48.994;9.212;2023-03-12T17:24:57;8.60;;;2.27;;
15104;SDS011;7653;48.994;9.212;2023-03-12T17:27:23;8.13;;;2.17;;
15104;SDS011;7653;48.994;9.212;2023-03-12T17:29:49;7.77;;;2.30;;
15104;SDS011;7653;48.994;9.212;2023-03-12T17:32:14;7.33;;;2.40;;
15104;SDS011;7653;48.994;9.212;2023-03-12T17:34:40;9.03;;;2.80;;
15104;SDS011;7653;48.994;9.212;2023-03-12T17:37:06;5.83;;;2.27;;
15104;SDS011;7653;48.994;9.212;2023-03-12T17:39:33;8.53;;;2.57;;
15104;SDS011;7653;48.994;9.212;2023-03-12T17:41:59;6.50;;;2.47;;
15104;SDS011;7653;48.994;9.212;2023-03-12T17:44:24;4.43;;;2.30;;
15104;SDS011;7653;48.994;9.212;2023-03-12T17:46:56;7.67;;;2.40;;
15104;SDS011;7653;48.994;9.212;2023-03-12T17:49:22;3.93;;;2.53;;
15104;SDS011;7653;48.994;9.212;2023-03-12T17:51:48;6.40;;;2.03;;
15104;SDS011;7653;48.994;9.212;2023-03-12T17:54:13;7.17;;;2.27;;
15104;SDS011;7653;48.994;9.212;2023-03-12T17:56:39;7.90;;;2.53;;
15104;SDS011;7653;48.994;9.212;2023-03-12T17:59:05;13.30;;;5.07;;
15104;SDS011;7653;48.994;9.212;2023-03-12T18:01:30;12.10;;;7.30;;
15104;SDS011;7653;48.994;9.212;2023-03-12T18:03:56;11.83;;;5.20;;
15104;SDS011;7653;48.994;9.212;2023-03-12T18:06:21;14.40;;;6.80;;
15104;SDS011;7653;48.994;9.212;2023-03-12T18:08:47;16.13;;;7.60;;
15104;SDS011;7653;48.994;9.212;2023-03-12T18:11:13;12.60;;;6.87;;
15104;SDS011;7653;48.994;9.212;2023-03-12T18:13:39;14.37;;;7.40;;
15104;SDS011;7653;48.994;9.212;2023-03-12T18:16:05;16.73;;;7.37;;
15104;SDS011;7653;48.994;9.212;2023-03-12T18:18:30;10.87;;;5.60;;